sensor_id;sensor_type;location;lat;lon;timestamp;pressure;altitude;pressure_sealevel;temperature;humidity
75549;BME280;64133;56.002;37.208;2023-04-03T00:01:49;98761.06;;;7.93;83.31
75549;BME280;64133;56.002;37.208;2023-04-03T00:06:53;98768.06;;;7.92;83.31
75549;BME280;64133;56.002;37.208;2023-04-03T00:11:58;98762.72;;;7.94;83.37
75549;BME280;64133;56.002;37.208;2023-04-03T00:17:02;98766.09;;;7.85;83.41
75549;BME280;64133;56.002;37.208;2023-04-03T00:22:07;98769.30;;;7.83;83.71
75549;BME280;64133;56.002;37.208;2023-04-03T00:27:14;98774.28;;;7.91;83.85
75549;BME280;64133;56.002;37.208;2023-04-03T00:32:21;98767.00;;;7.95;83.84
75549;BME280;64133;56.002;37.208;2023-04-03T00:37:26;98774.05;;;7.94;83.82
75549;BME280;64133;56.002;37.208;2023-04-03T00:42:31;98773.45;;;7.91;83.82
75549;BME280;64133;56.002;37.208;2023-04-03T00:47:35;98778.14;;;7.76;83.77
75549;BME280;64133;56.002;37.208;2023-04-03T00:52:40;98777.05;;;7.78;83.99
75549;BME280;64133;56.002;37.208;2023-04-03T00:57:50;98774.19;;;7.81;84.06
75549;BME280;64133;56.002;37.208;2023-04-03T01:02:52;98770.26;;;7.81;84.08
75549;BME280;64133;56.002;37.208;2023-04-03T01:08:04;98770.38;;;7.74;83.99
75549;BME280;64133;56.002;37.208;2023-04-03T01:13:27;98770.88;;;7.68;84.02
75549;BME280;64133;56.002;37.208;2023-04-03T01:18:44;98774.22;;;7.65;84.02
75549;BME280;64133;56.002;37.208;2023-04-03T01:29:17;98780.56;;;7.62;84.34
75549;BME280;64133;56.002;37.208;2023-04-03T01:34:25;98781.14;;;7.60;84.14
75549;BME280;64133;56.002;37.208;2023-04-03T01:39:32;98782.81;;;7.55;84.15
75549;BME280;64133;56.002;37.208;2023-04-03T01:44:36;98756.75;;;7.37;84.30
75549;BME280;64133;56.002;37.208;2023-04-03T01:49:41;98786.39;;;7.54;84.47
75549;BME280;64133;56.002;37.208;2023-04-03T01:54:45;98782.12;;;7.53;84.39
75549;BME280;64133;56.002;37.208;2023-04-03T01:59:50;98788.89;;;7.56;84.48
75549;BME280;64133;56.002;37.208;2023-04-03T02:04:58;98789.23;;;7.57;84.33
75549;BME280;64133;56.002;37.208;2023-04-03T02:10:02;98787.21;;;7.61;84.26
75549;BME280;64133;56.002;37.208;2023-04-03T02:15:09;98793.28;;;7.61;84.31
75549;BME280;64133;56.002;37.208;2023-04-03T02:20:16;98790.42;;;7.64;84.32
75549;BME280;64133;56.002;37.208;2023-04-03T02:25:27;98795.20;;;7.59;84.25
75549;BME280;64133;56.002;37.208;2023-04-03T02:30:31;98797.09;;;7.57;84.38
75549;BME280;64133;56.002;37.208;2023-04-03T02:35:38;98797.22;;;7.61;84.49
75549;BME280;64133;56.002;37.208;2023-04-03T02:40:42;98797.33;;;7.65;84.48
75549;BME280;64133;56.002;37.208;2023-04-03T02:45:55;98796.84;;;7.66;84.40
75549;BME280;64133;56.002;37.208;2023-04-03T02:51:05;98792.81;;;7.67;84.35
75549;BME280;64133;56.002;37.208;2023-04-03T02:56:10;98801.38;;;7.69;84.35
75549;BME280;64133;56.002;37.208;2023-04-03T03:01:15;98795.67;;;7.64;84.25
75549;BME280;64133;56.002;37.208;2023-04-03T03:06:19;98796.41;;;7.66;84.08
75549;BME280;64133;56.002;37.208;2023-04-03T03:21:57;98793.16;;;7.68;84.30
75549;BME280;64133;56.002;37.208;2023-04-03T03:27:03;98801.38;;;7.69;84.21
75549;BME280;64133;56.002;37.208;2023-04-03T03:32:16;98806.39;;;7.72;84.17
75549;BME280;64133;56.002;37.208;2023-04-03T03:37:20;98800.19;;;7.73;84.11
75549;BME280;64133;56.002;37.208;2023-04-03T03:42:28;98806.04;;;7.71;84.06
75549;BME280;64133;56.002;37.208;2023-04-03T03:47:29;98804.48;;;7.69;84.23
75549;BME280;64133;56.002;37.208;2023-04-03T03:52:34;98805.80;;;7.69;84.25
75549;BME280;64133;56.002;37.208;2023-04-03T03:57:41;98807.94;;;7.69;84.12
75549;BME280;64133;56.002;37.208;2023-04-03T04:02:46;98813.89;;;7.66;84.14
75549;BME280;64133;56.002;37.208;2023-04-03T04:07:53;98813.77;;;7.62;84.12
75549;BME280;64133;56.002;37.208;2023-04-03T04:13:00;98815.92;;;7.56;84.26
75549;BME280;64133;56.002;37.208;2023-04-03T04:18:05;98814.50;;;7.64;84.19
75549;BME280;64133;56.002;37.208;2023-04-03T04:23:10;98818.67;;;7.72;84.11
75549;BME280;64133;56.002;37.208;2023-04-03T04:28:14;98814.45;;;7.97;83.98
75549;BME280;64133;56.002;37.208;2023-04-03T04:38:35;98816.61;;;8.68;82.77
75549;BME280;64133;56.002;37.208;2023-04-03T04:43:40;98820.09;;;9.04;81.69
75549;BME280;64133;56.002;37.208;2023-04-03T04:48:46;98817.75;;;9.47;80.69
75549;BME280;64133;56.002;37.208;2023-04-03T04:53:51;98827.73;;;9.94;79.13
75549;BME280;64133;56.002;37.208;2023-04-03T04:58:58;98834.83;;;10.38;77.52
75549;BME280;64133;56.002;37.208;2023-04-03T05:04:00;98833.37;;;10.78;76.22
75549;BME280;64133;56.002;37.208;2023-04-03T05:09:09;98837.88;;;10.62;75.15
75549;BME280;64133;56.002;37.208;2023-04-03T05:14:16;98841.63;;;10.15;75.78
75549;BME280;64133;56.002;37.208;2023-04-03T05:19:24;98840.66;;;10.16;76.14
75549;BME280;64133;56.002;37.208;2023-04-03T05:24:28;98841.07;;;10.56;74.95
75549;BME280;64133;56.002;37.208;2023-04-03T05:34:50;98847.17;;;10.37;75.05
75549;BME280;64133;56.002;37.208;2023-04-03T05:39:55;98847.50;;;10.13;74.78
75549;BME280;64133;56.002;37.208;2023-04-03T05:50:14;98844.88;;;10.38;74.17
75549;BME280;64133;56.002;37.208;2023-04-03T05:55:19;98849.39;;;10.51;72.87
75549;BME280;64133;56.002;37.208;2023-04-03T06:00:24;98858.27;;;10.50;72.36
75549;BME280;64133;56.002;37.208;2023-04-03T06:05:28;98853.77;;;10.76;71.63
75549;BME280;64133;56.002;37.208;2023-04-03T06:10:33;98860.13;;;11.26;70.54
75549;BME280;64133;56.002;37.208;2023-04-03T06:15:38;98859.95;;;11.23;70.40
75549;BME280;64133;56.002;37.208;2023-04-03T06:20:43;98861.69;;;11.42;70.26
75549;BME280;64133;56.002;37.208;2023-04-03T06:25:47;98869.64;;;11.70;69.85
75549;BME280;64133;56.002;37.208;2023-04-03T06:30:52;98868.27;;;11.66;68.52
75549;BME280;64133;56.002;37.208;2023-04-03T06:36:00;98873.34;;;11.16;69.21
75549;BME280;64133;56.002;37.208;2023-04-03T06:41:04;98874.69;;;11.53;69.77
75549;BME280;64133;56.002;37.208;2023-04-03T06:46:12;98870.77;;;12.86;67.32
75549;BME280;64133;56.002;37.208;2023-04-03T06:51:19;98877.36;;;14.82;64.20
75549;BME280;64133;56.002;37.208;2023-04-03T06:56:24;98879.16;;;19.17;54.40
75549;BME280;64133;56.002;37.208;2023-04-03T07:01:29;98878.41;;;22.93;46.91
75549;BME280;64133;56.002;37.208;2023-04-03T07:06:33;98887.75;;;23.16;43.36
75549;BME280;64133;56.002;37.208;2023-04-03T07:11:38;98887.17;;;21.13;46.37
75549;BME280;64133;56.002;37.208;2023-04-03T07:16:42;98891.20;;;22.37;44.02
75549;BME280;64133;56.002;37.208;2023-04-03T07:21:47;98896.37;;;21.47;43.26
75549;BME280;64133;56.002;37.208;2023-04-03T07:26:52;98899.75;;;21.25;44.60
75549;BME280;64133;56.002;37.208;2023-04-03T07:37:10;98900.77;;;23.03;39.81
75549;BME280;64133;56.002;37.208;2023-04-03T07:42:14;98899.22;;;20.99;42.40
75549;BME280;64133;56.002;37.208;2023-04-03T07:47:19;98899.48;;;19.84;43.99
75549;BME280;64133;56.002;37.208;2023-04-03T07:52:24;98904.14;;;18.62;45.14
75549;BME280;64133;56.002;37.208;2023-04-03T07:57:29;98913.16;;;15.68;50.43
75549;BME280;64133;56.002;37.208;2023-04-03T08:02:36;98912.29;;;14.62;52.01
75549;BME280;64133;56.002;37.208;2023-04-03T08:07:41;98912.32;;;14.27;53.96
75549;BME280;64133;56.002;37.208;2023-04-03T08:12:47;98916.55;;;14.04;53.82
75549;BME280;64133;56.002;37.208;2023-04-03T08:17:52;98919.82;;;13.94;54.11
75549;BME280;64133;56.002;37.208;2023-04-03T08:23:00;98919.85;;;14.06;54.06
75549;BME280;64133;56.002;37.208;2023-04-03T08:28:06;98912.84;;;16.11;51.39
75549;BME280;64133;56.002;37.208;2023-04-03T08:33:15;98919.43;;;16.27;50.11
75549;BME280;64133;56.002;37.208;2023-04-03T08:38:20;98914.11;;;16.58;49.71
75549;BME280;64133;56.002;37.208;2023-04-03T08:43:30;98919.03;;;16.77;49.58
75549;BME280;64133;56.002;37.208;2023-04-03T08:48:35;98913.89;;;21.37;42.25
75549;BME280;64133;56.002;37.208;2023-04-03T08:53:40;98920.03;;;21.04;40.74
75549;BME280;64133;56.002;37.208;2023-04-03T08:58:46;98925.95;;;20.73;40.37
75549;BME280;64133;56.002;37.208;2023-04-03T09:03:50;98923.75;;;21.23;38.47
75549;BME280;64133;56.002;37.208;2023-04-03T09:08:58;98930.94;;;19.44;41.06
75549;BME280;64133;56.002;37.208;2023-04-03T09:14:02;98928.38;;;18.46;42.62
75549;BME280;64133;56.002;37.208;2023-04-03T09:19:10;98924.20;;;17.40;44.22
75549;BME280;64133;56.002;37.208;2023-04-03T09:24:14;98933.73;;;17.34;44.80
75549;BME280;64133;56.002;37.208;2023-04-03T09:29:21;98934.41;;;17.13;45.45
75549;BME280;64133;56.002;37.208;2023-04-03T09:34:25;98937.91;;;16.20;46.59
75549;BME280;64133;56.002;37.208;2023-04-03T09:39:29;98936.21;;;17.17;45.45
75549;BME280;64133;56.002;37.208;2023-04-03T09:44:37;98943.30;;;16.78;44.89
75549;BME280;64133;56.002;37.208;2023-04-03T09:49:41;98945.02;;;17.17;44.21
75549;BME280;64133;56.002;37.208;2023-04-03T09:54:46;98945.22;;;17.34;43.81
75549;BME280;64133;56.002;37.208;2023-04-03T10:00:01;98955.52;;;16.56;44.71
75549;BME280;64133;56.002;37.208;2023-04-03T10:05:04;98952.28;;;16.77;44.66
75549;BME280;64133;56.002;37.208;2023-04-03T10:10:18;98952.23;;;16.11;45.31
75549;BME280;64133;56.002;37.208;2023-04-03T10:15:22;98946.51;;;16.62;44.53
75549;BME280;64133;56.002;37.208;2023-04-03T10:20:31;98950.05;;;16.50;44.68
75549;BME280;64133;56.002;37.208;2023-04-03T10:25:37;98946.50;;;16.30;44.63
75549;BME280;64133;56.002;37.208;2023-04-03T10:30:47;98953.14;;;15.71;45.65
75549;BME280;64133;56.002;37.208;2023-04-03T10:35:57;98952.56;;;14.65;47.41
75549;BME280;64133;56.002;37.208;2023-04-03T10:41:01;98958.52;;;14.55;47.35
75549;BME280;64133;56.002;37.208;2023-04-03T10:46:09;98955.88;;;14.71;47.05
75549;BME280;64133;56.002;37.208;2023-04-03T10:51:18;98968.56;;;14.98;46.94
75549;BME280;64133;56.002;37.208;2023-04-03T10:56:24;98962.61;;;15.20;46.41
75549;BME280;64133;56.002;37.208;2023-04-03T11:01:28;98962.63;;;15.28;46.25
75549;BME280;64133;56.002;37.208;2023-04-03T11:06:36;98972.84;;;14.91;46.80
75549;BME280;64133;56.002;37.208;2023-04-03T11:11:41;98969.67;;;14.79;47.51
75549;BME280;64133;56.002;37.208;2023-04-03T11:16:47;98964.72;;;14.92;47.77
75549;BME280;64133;56.002;37.208;2023-04-03T11:21:52;98968.91;;;15.11;47.57
75549;BME280;64133;56.002;37.208;2023-04-03T11:26:58;98957.13;;;15.22;47.53
75549;BME280;64133;56.002;37.208;2023-04-03T11:32:21;98953.98;;;15.26;47.36
75549;BME280;64133;56.002;37.208;2023-04-03T11:42:39;98964.28;;;15.42;47.13
75549;BME280;64133;56.002;37.208;2023-04-03T11:47:47;98958.91;;;14.80;48.24
75549;BME280;64133;56.002;37.208;2023-04-03T11:53:10;98956.50;;;14.19;50.18
75549;BME280;64133;56.002;37.208;2023-04-03T11:58:14;98962.62;;;14.11;50.09
75549;BME280;64133;56.002;37.208;2023-04-03T12:03:33;98961.19;;;14.25;49.95
75549;BME280;64133;56.002;37.208;2023-04-03T12:08:45;98964.01;;;13.97;50.69
75549;BME280;64133;56.002;37.208;2023-04-03T12:14:04;98967.20;;;14.39;49.97
75549;BME280;64133;56.002;37.208;2023-04-03T12:24:36;98957.53;;;14.26;50.13
75549;BME280;64133;56.002;37.208;2023-04-03T12:29:42;98958.76;;;14.05;50.99
75549;BME280;64133;56.002;37.208;2023-04-03T12:34:55;98963.56;;;14.02;51.18
75549;BME280;64133;56.002;37.208;2023-04-03T12:40:05;98959.55;;;13.94;51.29
75549;BME280;64133;56.002;37.208;2023-04-03T12:45:15;98956.94;;;14.02;50.99
75549;BME280;64133;56.002;37.208;2023-04-03T12:50:24;98962.19;;;13.94;51.25
75549;BME280;64133;56.002;37.208;2023-04-03T12:55:28;98954.97;;;13.78;51.46
75549;BME280;64133;56.002;37.208;2023-04-03T13:00:35;98958.83;;;13.62;51.95
75549;BME280;64133;56.002;37.208;2023-04-03T13:05:41;98957.41;;;13.49;52.42
75549;BME280;64133;56.002;37.208;2023-04-03T13:10:49;98963.27;;;13.57;52.38
75549;BME280;64133;56.002;37.208;2023-04-03T13:15:53;98961.22;;;13.47;52.31
75549;BME280;64133;56.002;37.208;2023-04-03T13:21:04;98951.13;;;13.46;52.43
75549;BME280;64133;56.002;37.208;2023-04-03T13:26:08;98958.72;;;12.92;53.47
75549;BME280;64133;56.002;37.208;2023-04-03T13:31:20;98957.41;;;12.60;54.35
75549;BME280;64133;56.002;37.208;2023-04-03T13:36:27;98963.42;;;12.52;54.65
75549;BME280;64133;56.002;37.208;2023-04-03T13:46:52;98960.35;;;12.43;55.55
75549;BME280;64133;56.002;37.208;2023-04-03T13:51:59;98963.67;;;12.18;56.38
75549;BME280;64133;56.002;37.208;2023-04-03T13:57:02;98965.53;;;12.21;56.51
75549;BME280;64133;56.002;37.208;2023-04-03T14:02:16;98969.65;;;12.06;57.22
75549;BME280;64133;56.002;37.208;2023-04-03T14:07:22;98974.59;;;11.95;57.53
75549;BME280;64133;56.002;37.208;2023-04-03T14:12:28;98978.46;;;12.01;58.06
75549;BME280;64133;56.002;37.208;2023-04-03T14:17:32;98973.55;;;12.02;58.38
75549;BME280;64133;56.002;37.208;2023-04-03T14:22:37;98970.15;;;11.96;58.91
75549;BME280;64133;56.002;37.208;2023-04-03T14:27:43;98977.45;;;11.98;59.76
75549;BME280;64133;56.002;37.208;2023-04-03T14:32:46;98975.86;;;11.81;60.23
75549;BME280;64133;56.002;37.208;2023-04-03T14:37:52;98979.08;;;11.66;60.95
75549;BME280;64133;56.002;37.208;2023-04-03T14:42:59;98984.59;;;11.49;62.17
75549;BME280;64133;56.002;37.208;2023-04-03T14:48:04;98986.33;;;11.44;62.71
75549;BME280;64133;56.002;37.208;2023-04-03T14:53:09;98993.30;;;11.45;63.13
75549;BME280;64133;56.002;37.208;2023-04-03T14:58:15;98994.91;;;11.32;64.17
75549;BME280;64133;56.002;37.208;2023-04-03T15:03:20;98989.69;;;11.17;65.27
75549;BME280;64133;56.002;37.208;2023-04-03T15:08:25;99003.05;;;10.91;66.99
75549;BME280;64133;56.002;37.208;2023-04-03T15:13:29;98996.22;;;10.69;68.36
75549;BME280;64133;56.002;37.208;2023-04-03T15:18:35;98999.33;;;10.59;69.33
75549;BME280;64133;56.002;37.208;2023-04-03T15:23:40;98998.65;;;10.41;70.49
75549;BME280;64133;56.002;37.208;2023-04-03T15:28:44;98998.99;;;10.42;70.95
75549;BME280;64133;56.002;37.208;2023-04-03T15:33:49;99006.66;;;10.40;71.57
75549;BME280;64133;56.002;37.208;2023-04-03T15:38:54;99008.92;;;10.29;72.12
75549;BME280;64133;56.002;37.208;2023-04-03T15:44:03;99010.28;;;10.18;72.54
75549;BME280;64133;56.002;37.208;2023-04-03T15:49:07;99014.15;;;10.14;73.06
75549;BME280;64133;56.002;37.208;2023-04-03T15:54:12;99020.73;;;9.98;73.95
75549;BME280;64133;56.002;37.208;2023-04-03T15:59:17;99019.09;;;9.92;74.57
75549;BME280;64133;56.002;37.208;2023-04-03T16:04:22;99020.88;;;9.76;75.13
75549;BME280;64133;56.002;37.208;2023-04-03T16:09:26;99026.05;;;9.72;75.77
75549;BME280;64133;56.002;37.208;2023-04-03T16:14:31;99025.02;;;9.63;76.15
75549;BME280;64133;56.002;37.208;2023-04-03T16:19:36;99018.98;;;9.51;76.59
75549;BME280;64133;56.002;37.208;2023-04-03T16:24:43;99026.18;;;9.44;76.97
75549;BME280;64133;56.002;37.208;2023-04-03T16:29:48;99029.43;;;9.42;77.24
75549;BME280;64133;56.002;37.208;2023-04-03T16:34:56;99036.25;;;9.39;77.28
75549;BME280;64133;56.002;37.208;2023-04-03T16:40:01;99038.66;;;9.36;77.11
75549;BME280;64133;56.002;37.208;2023-04-03T16:45:07;99036.31;;;9.27;77.14
75549;BME280;64133;56.002;37.208;2023-04-03T16:50:12;99045.78;;;9.19;77.35
75549;BME280;64133;56.002;37.208;2023-04-03T16:55:17;99044.20;;;9.27;77.31
75549;BME280;64133;56.002;37.208;2023-04-03T17:00:22;99042.91;;;9.16;77.58
75549;BME280;64133;56.002;37.208;2023-04-03T17:05:26;99050.34;;;9.11;78.12
75549;BME280;64133;56.002;37.208;2023-04-03T17:10:31;99051.19;;;9.00;78.64
75549;BME280;64133;56.002;37.208;2023-04-03T17:15:36;99055.26;;;8.99;78.75
75549;BME280;64133;56.002;37.208;2023-04-03T17:20:40;99068.17;;;8.91;78.98
75549;BME280;64133;56.002;37.208;2023-04-03T17:25:45;99068.30;;;8.89;79.35
75549;BME280;64133;56.002;37.208;2023-04-03T17:30:52;99073.56;;;8.78;79.27
75549;BME280;64133;56.002;37.208;2023-04-03T17:36:00;99071.78;;;8.84;79.24
75549;BME280;64133;56.002;37.208;2023-04-03T17:41:05;99075.61;;;8.80;79.11
75549;BME280;64133;56.002;37.208;2023-04-03T17:46:09;99080.02;;;8.79;79.21
75549;BME280;64133;56.002;37.208;2023-04-03T17:51:14;99075.97;;;8.75;79.28
75549;BME280;64133;56.002;37.208;2023-04-03T17:56:19;99075.35;;;8.66;79.61
75549;BME280;64133;56.002;37.208;2023-04-03T18:01:27;99081.45;;;8.61;79.64
75549;BME280;64133;56.002;37.208;2023-04-03T18:06:31;99080.02;;;8.57;80.01
75549;BME280;64133;56.002;37.208;2023-04-03T18:11:36;99081.35;;;8.46;80.40
75549;BME280;64133;56.002;37.208;2023-04-03T18:16:41;99086.23;;;8.56;80.69
75549;BME280;64133;56.002;37.208;2023-04-03T18:21:47;99079.09;;;8.58;80.74
75549;BME280;64133;56.002;37.208;2023-04-03T18:26:53;99074.55;;;8.54;80.94
75549;BME280;64133;56.002;37.208;2023-04-03T18:31:56;99066.07;;;8.51;81.17
75549;BME280;64133;56.002;37.208;2023-04-03T18:37:01;99070.84;;;8.51;81.28
75549;BME280;64133;56.002;37.208;2023-04-03T18:42:07;99064.52;;;8.43;81.69
75549;BME280;64133;56.002;37.208;2023-04-03T18:47:11;99062.98;;;8.40;81.82
75549;BME280;64133;56.002;37.208;2023-04-03T18:52:16;99058.77;;;8.32;81.80
75549;BME280;64133;56.002;37.208;2023-04-03T18:57:20;99056.38;;;8.23;82.21
75549;BME280;64133;56.002;37.208;2023-04-03T19:02:25;99060.41;;;8.22;82.23
75549;BME280;64133;56.002;37.208;2023-04-03T19:07:32;99060.56;;;8.31;82.27
75549;BME280;64133;56.002;37.208;2023-04-03T19:12:37;99055.77;;;8.25;82.26
75549;BME280;64133;56.002;37.208;2023-04-03T19:17:44;99050.17;;;8.24;82.47
75549;BME280;64133;56.002;37.208;2023-04-03T19:22:49;99053.75;;;8.29;82.39
75549;BME280;64133;56.002;37.208;2023-04-03T19:27:53;99044.09;;;8.29;82.42
75549;BME280;64133;56.002;37.208;2023-04-03T19:32:58;99045.29;;;8.14;82.49
75549;BME280;64133;56.002;37.208;2023-04-03T19:38:03;99044.81;;;8.15;82.69
75549;BME280;64133;56.002;37.208;2023-04-03T19:43:07;99050.03;;;8.03;82.82
75549;BME280;64133;56.002;37.208;2023-04-03T19:48:12;99047.05;;;7.97;83.04
75549;BME280;64133;56.002;37.208;2023-04-03T19:53:17;99045.27;;;8.03;83.19
75549;BME280;64133;56.002;37.208;2023-04-03T19:58:30;99048.72;;;7.98;83.26
75549;BME280;64133;56.002;37.208;2023-04-03T20:03:35;99047.50;;;7.79;83.29
75549;BME280;64133;56.002;37.208;2023-04-03T20:08:40;99043.30;;;7.71;83.81
75549;BME280;64133;56.002;37.208;2023-04-03T20:13:45;99043.79;;;7.76;83.96
75549;BME280;64133;56.002;37.208;2023-04-03T20:18:50;99039.12;;;7.74;83.93
75549;BME280;64133;56.002;37.208;2023-04-03T20:23:54;99032.69;;;7.67;83.84
75549;BME280;64133;56.002;37.208;2023-04-03T20:28:59;99038.77;;;7.73;84.04
75549;BME280;64133;56.002;37.208;2023-04-03T20:34:04;99035.44;;;7.77;84.10
75549;BME280;64133;56.002;37.208;2023-04-03T20:39:08;99043.66;;;7.78;84.00
75549;BME280;64133;56.002;37.208;2023-04-03T20:44:13;99044.66;;;7.88;83.96
75549;BME280;64133;56.002;37.208;2023-04-03T20:49:18;99041.78;;;7.86;83.66
75549;BME280;64133;56.002;37.208;2023-04-03T20:54:22;99036.89;;;7.87;83.75
75549;BME280;64133;56.002;37.208;2023-04-03T20:59:27;99031.41;;;7.90;83.69
75549;BME280;64133;56.002;37.208;2023-04-03T21:20:49;99028.89;;;7.71;83.71
75549;BME280;64133;56.002;37.208;2023-04-03T21:25:54;99025.39;;;7.60;84.09
75549;BME280;64133;56.002;37.208;2023-04-03T21:30:59;99017.17;;;7.59;84.20
75549;BME280;64133;56.002;37.208;2023-04-03T21:36:03;99018.45;;;7.53;84.41
75549;BME280;64133;56.002;37.208;2023-04-03T21:41:08;99015.03;;;7.58;84.58
75549;BME280;64133;56.002;37.208;2023-04-03T21:46:12;99013.20;;;7.53;84.62
75549;BME280;64133;56.002;37.208;2023-04-03T21:51:17;99010.23;;;7.52;84.61
75549;BME280;64133;56.002;37.208;2023-04-03T21:56:22;99004.20;;;7.74;84.67
75549;BME280;64133;56.002;37.208;2023-04-03T22:01:27;98999.56;;;7.83;84.52
75549;BME280;64133;56.002;37.208;2023-04-03T22:06:32;98998.63;;;7.90;84.25
75549;BME280;64133;56.002;37.208;2023-04-03T22:11:39;98997.67;;;7.91;84.09
75549;BME280;64133;56.002;37.208;2023-04-03T22:16:44;99001.25;;;7.90;83.97
75549;BME280;64133;56.002;37.208;2023-04-03T22:21:49;99000.88;;;7.77;83.82
75549;BME280;64133;56.002;37.208;2023-04-03T22:26:56;99000.75;;;7.73;84.01
75549;BME280;64133;56.002;37.208;2023-04-03T22:32:01;98996.34;;;7.74;84.10
75549;BME280;64133;56.002;37.208;2023-04-03T22:37:06;99007.39;;;7.55;84.08
75549;BME280;64133;56.002;37.208;2023-04-03T22:42:13;99004.07;;;7.59;84.44
75549;BME280;64133;56.002;37.208;2023-04-03T22:47:18;98995.34;;;7.52;84.52
75549;BME280;64133;56.002;37.208;2023-04-03T22:52:22;98998.00;;;7.58;84.67
75549;BME280;64133;56.002;37.208;2023-04-03T22:57:29;99002.54;;;7.73;84.59
75549;BME280;64133;56.002;37.208;2023-04-03T23:02:34;98997.91;;;7.71;84.38
75549;BME280;64133;56.002;37.208;2023-04-03T23:12:52;98987.69;;;7.44;84.75
75549;BME280;64133;56.002;37.208;2023-04-03T23:17:57;98986.56;;;7.18;85.02
75549;BME280;64133;56.002;37.208;2023-04-03T23:23:02;98988.12;;;7.26;85.41
75549;BME280;64133;56.002;37.208;2023-04-03T23:28:07;98979.22;;;7.35;85.42
75549;BME280;64133;56.002;37.208;2023-04-03T23:33:12;98978.52;;;7.38;85.30
75549;BME280;64133;56.002;37.208;2023-04-03T23:38:16;98978.98;;;7.32;85.17
75549;BME280;64133;56.002;37.208;2023-04-03T23:43:24;98975.84;;;7.21;85.16
75549;BME280;64133;56.002;37.208;2023-04-03T23:48:29;98970.72;;;7.20;85.37
75549;BME280;64133;56.002;37.208;2023-04-03T23:53:34;98965.63;;;7.29;85.45
75549;BME280;64133;56.002;37.208;2023-04-03T23:58:41;98961.00;;;7.33;85.31
